Address 0x0cb0b16fd0fcdd2dd3be5f31b93672244c028330

 
 
Txn Hash Method
Block
From
To
Value [Txn Fee]
0x5d1692cacb034f0d390e5c7b4fb68d95e384d361478a714feee9ac73e5bf7884Approve104820582021-08-30 15:04:0122 days 4 hrs ago0x0cb0b16fd0fcdd2dd3be5f31b93672244c028330OUT Fake_Phishing610 BNB0.000222515
0x7d02e4579b2195eafec1ef068df97791dec8f6ad0cd0449fc7fb2d0ddafc1430Swap Exact Token...91561652021-07-14 18:13:1269 days 1 hr ago0x0cb0b16fd0fcdd2dd3be5f31b93672244c028330OUT PancakeSwap: Router v20 BNB0.000602595
0x740a90d734e8840e0c5ba70e4eb139d7a248fe0dc29f7982e6c8bac2e4c5978bApprove91561042021-07-14 18:10:0969 days 1 hr ago0x0cb0b16fd0fcdd2dd3be5f31b93672244c028330OUT Venus: VRT Token0 BNB0.00023091
0xc669fd4c2edbe8faba7dc1477bc21ab88a0716611548917aafd90891c47eacc8Deposit69552402021-04-28 9:48:26146 days 10 hrs ago0x0cb0b16fd0fcdd2dd3be5f31b93672244c028330OUT 0x7679381507af0c8de64586a458161aa58d3a4fc30 BNB0.000460255
0x3b20e0f7a3b74cae205e65dbe324c5ce0060e91eb498573ef5efe85f6952adc9Transfer69551072021-04-28 9:41:47146 days 10 hrs ago0x0cb0b16fd0fcdd2dd3be5f31b93672244c028330OUT Swipe: SXP Token0 BNB0.00020123
0x8be81aace2d955dfd977c9f0abd3ea2ad95ee0014ea7e638ce646118aa8bb6d4Harvest69548962021-04-28 9:31:14146 days 10 hrs ago0x0cb0b16fd0fcdd2dd3be5f31b93672244c028330OUT 0xb1fa5d3c0111d8e9ac43a19ef17b281d5d4b474e0 BNB0.000982395
0x29afd30f914fc129bc4611f5a6c7d10b8fa198f1ced614e40958e3bf6a223bc5Withdraw69548812021-04-28 9:30:29146 days 10 hrs ago0x0cb0b16fd0fcdd2dd3be5f31b93672244c028330OUT 0xfc698dae6c5b7e38f8eb8fc240f23c598d17e5e20 BNB0.00258339
0x14616021e70995d5374b292161e9169cf9a1cb90672c453dbd91e393827dcef6Withdraw69548652021-04-28 9:29:41146 days 10 hrs ago0x0cb0b16fd0fcdd2dd3be5f31b93672244c028330OUT 0xb1fa5d3c0111d8e9ac43a19ef17b281d5d4b474e0 BNB0.000769905
0xa223e929b56ce5bf38bc1d3ca08c872f52a886ca017d78128ddf8072ca20fb8bDeposit64151972021-04-09 12:58:27165 days 6 hrs ago0x0cb0b16fd0fcdd2dd3be5f31b93672244c028330OUT 0xb1fa5d3c0111d8e9ac43a19ef17b281d5d4b474e0 BNB0.001161595
0x53c3c9f0e85db9707aa896b7e5143983fe236f442bc074c86ecd738cce2c6e0aApprove64151892021-04-09 12:58:03165 days 6 hrs ago0x0cb0b16fd0fcdd2dd3be5f31b93672244c028330OUT 0x6fe6762e9314ad80803fef083c8bb16af435a6280 BNB0.00022226
0x871c7a12a2cf6aa9b3c95a3c526ef7ad56dea487281f0bf6eb235d4faf1619d6Deposit ETH64151492021-04-09 12:56:03165 days 6 hrs ago0x0cb0b16fd0fcdd2dd3be5f31b93672244c028330OUT 0x6fe6762e9314ad80803fef083c8bb16af435a6280.2 BNB0.00333836
0x2cacb821d78460c5063d4a096a00bfd68e8a5443bea32db8678e52890318294dDeposit64151442021-04-09 12:55:48165 days 7 hrs ago0x0cb0b16fd0fcdd2dd3be5f31b93672244c028330OUT 0xb1fa5d3c0111d8e9ac43a19ef17b281d5d4b474e0 BNB0.00175016
0x6e047198b9e28613bbe8c65fcb0f701144bb96424638883ae1888f58fbf7f55dDeposit64149732021-04-09 12:47:15165 days 7 hrs ago0x0cb0b16fd0fcdd2dd3be5f31b93672244c028330OUT 0x7679381507af0c8de64586a458161aa58d3a4fc30 BNB0.00092051
0x477ed03ebdfd5dbe6ce55e0a201fd8b6cdd61bd32b3cf27108c33f5388b7990cHarvest64149562021-04-09 12:46:24165 days 7 hrs ago0x0cb0b16fd0fcdd2dd3be5f31b93672244c028330OUT 0xb1fa5d3c0111d8e9ac43a19ef17b281d5d4b474e0 BNB0.00205034
0xb3591b5397be72598f24029722435e129cb7df261a7c04e52fd7e8240ccfaadfTransfer61923382021-04-01 15:25:38173 days 4 hrs ago0x0cb0b16fd0fcdd2dd3be5f31b93672244c028330OUT0x7a5e48df1c4966c67ec952f9b0cb13c295386f4a10.5 BNB0.00021
0x37d7f0e50523bc8e501702bc830d985727b3c234de6d03ac1f002a29887b9e25Transfer61922862021-04-01 15:23:02173 days 4 hrs ago0x0cb0b16fd0fcdd2dd3be5f31b93672244c028330OUT Binance: BUSD Stablecoin0 BNB0.00036139
0xdc5455a628ebb72e61c0c126e653dc84adf1f1b2f88be6084feede09cc0a2b55Remove Liquidity...61922172021-04-01 15:19:35173 days 4 hrs ago0x0cb0b16fd0fcdd2dd3be5f31b93672244c028330OUT PancakeSwap: Router0 BNB0.00161726
0xa325510bcb019e3a5d30f27d0066891ed64b7bfbaae7eb85b1d47f8dcc621dddApprove61922052021-04-01 15:18:59173 days 4 hrs ago0x0cb0b16fd0fcdd2dd3be5f31b93672244c028330OUT PancakeSwap: BUSD0 BNB0.00025131
0xe7fcf4ce7395a9b7c14d0d0f7e474db3c3ba33ca307710d3941f59f889f8dc54Approve61921972021-04-01 15:18:35173 days 4 hrs ago0x0cb0b16fd0fcdd2dd3be5f31b93672244c028330OUT PancakeSwap: BUSD0 BNB0.00044331
0x42e79f6acf62fb6def3be2d1d47d7e72afa14d439c08973f6ea0c3fc19e8a8a5Withdraw61921452021-04-01 15:15:59173 days 4 hrs ago0x0cb0b16fd0fcdd2dd3be5f31b93672244c028330OUT 0x97391c2a035bdcf537c1ce2a70d14faa3d44317f0 BNB0.0024775
0x1cd7fa7e859de44a732549ab01ab6ba735189147b50a2407798e894b79190090Withdraw61921292021-04-01 15:15:11173 days 4 hrs ago0x0cb0b16fd0fcdd2dd3be5f31b93672244c028330OUT 0xb1fa5d3c0111d8e9ac43a19ef17b281d5d4b474e0 BNB0.00168981
0x26144a27c5f78d7e8851326ab7cd17e2174aaee11f8c7757ac6bca27cb2ca406Swap Exact Token...61920922021-04-01 15:13:20173 days 4 hrs ago0x0cb0b16fd0fcdd2dd3be5f31b93672244c028330OUT PancakeSwap: Router0 BNB0.0016187
0x9307c5f8ae4a5b8069ef963c6e5e5d2b0dc8fd4e275e769a6dc148a91775bba3Harvest61919892021-04-01 15:08:11173 days 4 hrs ago0x0cb0b16fd0fcdd2dd3be5f31b93672244c028330OUT 0xb1fa5d3c0111d8e9ac43a19ef17b281d5d4b474e0 BNB0.00220034
0x8e1fc3fdaa82113e97e50e59c9df05e473c25e6508a05a7a336542f63189eb28Deposit56222202021-03-12 17:51:29193 days 2 hrs ago0x0cb0b16fd0fcdd2dd3be5f31b93672244c028330OUT 0x7679381507af0c8de64586a458161aa58d3a4fc30 BNB0.00107051
0xec5455eff2eec64d01e0b850f13d3c47637e573ca377c83844a307a450636d66Approve56222132021-03-12 17:51:08193 days 2 hrs ago0x0cb0b16fd0fcdd2dd3be5f31b93672244c028330OUT ACryptoS: ACS Token0 BNB0.00044406
[ Download CSV Export 
Latest 4 internal transactions
Parent Txn Hash Block From To Value
0x7d02e4579b2195eafec1ef068df97791dec8f6ad0cd0449fc7fb2d0ddafc143091561652021-07-14 18:13:1269 days 1 hr ago PancakeSwap: Router v20x0cb0b16fd0fcdd2dd3be5f31b93672244c0283300.03086526822196321 BNB
0xdc5455a628ebb72e61c0c126e653dc84adf1f1b2f88be6084feede09cc0a2b5561922172021-04-01 15:19:35173 days 4 hrs ago PancakeSwap: Router0x0cb0b16fd0fcdd2dd3be5f31b93672244c02833010.263041135562590046 BNB
0xea3ad5e5bc18c20077aca1ff5f3dd86cf2ada8de097f3fdd2b952ff2321d383750165742021-02-19 12:46:31214 days 7 hrs ago PancakeSwap: Router0x0cb0b16fd0fcdd2dd3be5f31b93672244c0283300.037476580703352543 BNB
0xc9495980c20a5a50cae4063c9d5ea86ca1e95fd7f746e6b334c8dc4498ddc83b50165242021-02-19 12:43:15214 days 7 hrs ago 0x6fe6762e9314ad80803fef083c8bb16af435a6280x0cb0b16fd0fcdd2dd3be5f31b93672244c02833010.461120711835255559 BNB
[ Download CSV Export 
Loading

Contract Name:
0 BNB

Compiler Version
0

Optimization Enabled:
0 BNB

Other Settings:
-NA-
Block Transaction Gas Used Reward
Age Block Fee Address BC Fee Address Voting Power Jailed Incoming
Block Uncle Number Difficulty Gas Used Reward
Loading
Loading
Make sure to use the "Vote Down" button for any spammy posts, and the "Vote Up" for interesting conversations.